Time;durP1;ratioP1;P1;durP2;ratioP2;P2;SDS_P1;SDS_P2;PMS_P1;PMS_P2;Temp;Humidity;BMP_temperature;BMP_pressure;BME280_temperature;BME280_humidity;BME280_pressure;Samples;Min_cycle;Max_cycle;Signal;HPM_P1;HPM_P2
2024/02/27 00:00:53;;;;;;;;;22.00;21.00;;;;;7.65;77.42;100973.69;2011420;28;3573200;-78
2024/02/27 00:02:05;;;;;;;;;21.00;19.00;;;;;7.68;77.00;100968.38;2015051;28;2829440;-78
2024/02/27 00:03:16;;;;;;;;;22.33;21.00;;;;;7.67;77.19;100973.66;1989963;28;3567913;-77
2024/02/27 00:04:28;;;;;;;;;26.00;21.00;;;;;7.70;77.38;100968.38;2013574;28;3582536;-79
2024/02/27 00:05:40;;;;;;;;;24.67;23.00;;;;;7.70;76.70;100978.84;2011447;28;3594482;-78
2024/02/27 00:06:54;;;;;;;;;24.00;22.67;;;;;7.68;76.54;100972.78;1991221;28;3579760;-78
2024/02/27 00:08:06;;;;;;;;;24.67;20.33;;;;;7.67;76.81;100960.56;1998184;28;3564840;-79
2024/02/27 00:09:18;;;;;;;;;28.00;26.00;;;;;7.68;77.23;100962.31;2000409;28;2849275;-80
2024/02/27 00:10:30;;;;;;;;;26.67;23.67;;;;;7.72;76.96;100971.84;1965788;28;3588773;-79
2024/02/27 00:11:43;;;;;;;;;22.00;19.67;;;;;7.71;76.68;100977.94;2006897;28;2835743;-78
2024/02/27 00:12:54;;;;;;;;;29.33;27.00;;;;;7.67;76.44;100974.53;1997725;28;3580440;-78
2024/02/27 00:14:06;;;;;;;;;28.67;24.33;;;;;7.60;76.24;100970.28;2008924;28;3591930;-79
2024/02/27 00:15:19;;;;;;;;;26.60;20.00;;;;;7.59;76.82;100974.66;2017535;28;1834668;-79
2024/02/27 00:16:30;;;;;;;;;24.00;20.50;;;;;7.61;76.83;100980.72;1968804;28;2837826;-79
2024/02/27 00:17:42;;;;;;;;;27.00;24.67;;;;;7.62;77.08;100987.69;2014535;28;3587740;-80
2024/02/27 00:18:53;;;;;;;;;28.40;25.00;;;;;7.59;76.67;100984.25;2011662;28;3603313;-78
2024/02/27 00:20:07;;;;;;;;;22.67;20.33;;;;;7.60;76.61;100994.72;1990761;28;3579481;-79
2024/02/27 00:21:19;;;;;;;;;22.67;21.33;;;;;7.58;76.98;100988.59;1998503;28;3563801;-79
2024/02/27 00:22:30;;;;;;;;;14.25;12.00;;;;;7.61;76.89;100995.53;2012242;28;1843062;-80
2024/02/27 00:23:44;;;;;;;;;18.33;16.67;;;;;7.62;76.97;101000.78;2027859;27;1835759;-79
2024/02/27 00:24:55;;;;;;;;;26.00;25.00;;;;;7.64;76.75;101009.47;1977538;28;2829436;-77
2024/02/27 00:26:07;;;;;;;;;29.33;23.67;;;;;7.63;76.73;101017.34;2015188;28;3596096;-78
2024/02/27 00:27:19;;;;;;;;;29.67;24.00;;;;;7.59;76.09;101002.56;2014202;28;3599213;-78
2024/02/27 00:28:31;;;;;;;;;27.33;24.33;;;;;7.59;76.41;101006.03;2013925;28;3575319;-79
2024/02/27 00:29:43;;;;;;;;;35.67;25.00;;;;;7.58;76.89;101017.38;2008446;28;3592929;-78
2024/02/27 00:30:54;;;;;;;;;26.25;23.75;;;;;7.58;76.43;100999.06;2014775;28;1835719;-77
2024/02/27 00:32:05;;;;;;;;;21.50;20.00;;;;;7.61;76.13;101016.47;1967475;28;2839856;-78
2024/02/27 00:33:16;;;;;;;;;20.67;20.00;;;;;7.57;76.86;101012.19;1991822;28;3571440;-79
2024/02/27 00:34:29;;;;;;;;;20.33;18.50;;;;;7.57;76.58;101023.53;2020639;28;2828371;-78
2024/02/27 00:35:41;;;;;;;;;27.60;24.60;;;;;7.60;76.41;101023.47;1986570;27;3581570;-78
2024/02/27 00:36:53;;;;;;;;;33.67;30.33;;;;;7.56;76.53;101019.16;1997547;28;3608556;-78
2024/02/27 00:38:05;;;;;;;;;31.40;30.60;;;;;7.54;76.28;101028.78;1994138;28;3592920;-79
2024/02/27 00:39:17;;;;;;;;;30.33;24.33;;;;;7.53;75.97;101014.00;1991958;28;3600244;-79
2024/02/27 00:40:29;;;;;;;;;29.67;27.33;;;;;7.58;76.08;101037.47;2014169;28;3598212;-79
2024/02/27 00:41:41;;;;;;;;;28.80;24.20;;;;;7.55;76.77;101017.47;2016388;28;3597078;-80
2024/02/27 00:42:52;;;;;;;;;26.00;24.00;;;;;7.61;76.51;101024.31;1968476;28;2848138;-79
2024/02/27 00:44:06;;;;;;;;;24.67;23.67;;;;;7.62;76.61;101019.09;1984635;28;3587728;-80
2024/02/27 00:45:17;;;;;;;;;28.00;21.67;;;;;7.65;76.29;101031.25;1998333;28;3579409;-79
2024/02/27 00:46:29;;;;;;;;;31.00;27.67;;;;;7.62;76.03;101044.38;2014417;28;3580472;-78
2024/02/27 00:47:41;;;;;;;;;42.80;34.80;;;;;7.59;75.40;101031.34;2018790;27;3616856;-77
2024/02/27 00:48:53;;;;;;;;;36.60;27.20;;;;;7.56;76.27;101032.25;1994439;28;3612684;-79
2024/02/27 00:50:06;;;;;;;;;44.00;34.33;;;;;7.55;75.72;101043.63;1993096;28;3622096;-80
2024/02/27 00:51:16;;;;;;;;;31.00;25.00;;;;;7.49;76.24;101047.19;1975425;28;2855493;-78
2024/02/27 00:52:28;;;;;;;;;31.60;26.80;;;;;7.52;76.25;101041.03;1985229;28;3601262;-78
2024/02/27 00:53:41;;;;;;;;;30.00;28.14;;;;;7.49;76.17;101051.53;2008118;28;3594351;-78
2024/02/27 00:54:53;;;;;;;;;34.40;31.40;;;;;7.47;75.75;101030.66;1996409;27;3601286;-80
2024/02/27 00:56:06;;;;;;;;;36.00;30.00;;;;;7.46;76.04;101035.91;1996018;28;3615839;-78
2024/02/27 00:57:17;;;;;;;;;28.67;23.67;;;;;7.46;76.61;101039.38;1961593;28;3596089;-79
2024/02/27 00:58:29;;;;;;;;;30.60;25.80;;;;;7.47;76.36;101037.63;2010899;28;3584600;-79
2024/02/27 00:59:41;;;;;;;;;27.33;25.00;;;;;7.56;76.41;101036.59;2020210;28;3589171;-79
2024/02/27 01:00:53;;;;;;;;;27.40;24.60;;;;;7.59;76.60;101042.66;2018453;28;3563200;-80
2024/02/27 01:02:05;;;;;;;;;36.60;27.20;;;;;7.63;76.49;101057.41;2019168;28;3622062;-79
2024/02/27 01:03:17;;;;;;;;;19.60;19.60;;;;;7.64;75.87;101043.47;1994192;27;3568960;-79
2024/02/27 01:04:29;;;;;;;;;25.00;21.67;;;;;7.67;76.11;101039.94;2004861;28;3579422;-79
2024/02/27 01:05:41;;;;;;;;;27.67;24.00;;;;;7.72;75.97;101060.78;2006789;28;3570040;-79
2024/02/27 01:06:52;;;;;;;;;24.67;24.00;;;;;7.71;75.97;101048.59;2003637;28;3582534;-79
2024/02/27 01:08:05;;;;;;;;;31.67;26.67;;;;;7.71;75.64;101052.06;2014402;28;3591903;-79
2024/02/27 01:09:16;;;;;;;;;33.67;30.00;;;;;7.67;75.27;101055.63;2005970;28;3592956;-78
2024/02/27 01:10:28;;;;;;;;;31.60;28.80;;;;;7.68;75.57;101059.97;1993481;28;3603363;-78
2024/02/27 01:11:40;;;;;;;;;37.00;32.00;;;;;7.68;75.18;101062.59;1989377;28;3605478;-78
2024/02/27 01:12:52;;;;;;;;;30.80;28.20;;;;;7.63;75.71;101057.41;1994903;28;3576231;-79
2024/02/27 01:14:04;;;;;;;;;30.33;27.00;;;;;7.64;75.31;101061.78;2014882;28;3596068;-78
2024/02/27 01:15:16;;;;;;;;;36.33;30.00;;;;;7.64;75.34;101068.75;2013901;28;3614341;-78
2024/02/27 01:16:28;;;;;;;;;28.20;27.20;;;;;7.67;75.60;101070.47;1994696;28;3593980;-79
2024/02/27 01:17:40;;;;;;;;;24.33;21.33;;;;;7.65;75.93;101066.09;2010309;28;3565900;-80
2024/02/27 01:18:52;;;;;;;;;25.40;24.20;;;;;7.70;75.63;101057.34;2018637;28;3582477;-79
2024/02/27 01:20:04;;;;;;;;;26.20;24.80;;;;;7.68;75.77;101057.34;2020270;28;3581465;-80
2024/02/27 01:21:17;;;;;;;;;31.33;25.33;;;;;7.69;75.49;101073.91;1996001;28;3582520;-78
2024/02/27 01:22:29;;;;;;;;;34.50;31.00;;;;;7.70;75.21;101068.69;1990416;28;2863842;-79
2024/02/27 01:23:39;;;;;;;;;29.50;28.50;;;;;7.73;75.63;101062.53;1959903;28;2852380;-79
2024/02/27 01:24:51;;;;;;;;;34.33;30.00;;;;;7.74;75.62;101069.47;1983240;28;3594980;-79
2024/02/27 01:26:03;;;;;;;;;31.00;27.80;;;;;7.73;75.63;101075.63;2008438;28;3577274;-78
2024/02/27 01:27:15;;;;;;;;;41.00;35.00;;;;;7.69;74.71;101080.03;1987599;27;3609594;-79
2024/02/27 01:28:27;;;;;;;;;33.60;29.20;;;;;7.66;75.03;101085.28;1994835;27;3612063;-78
2024/02/27 01:29:39;;;;;;;;;32.20;30.20;;;;;7.62;75.20;101079.25;1996335;28;3587736;-79
2024/02/27 01:30:51;;;;;;;;;37.33;32.00;;;;;7.62;75.30;101092.34;2014370;28;3615855;-78
2024/02/27 01:32:08;;;;;;;;;26.20;21.40;;;;;7.65;75.54;101094.06;1993499;27;3608560;-77
2024/02/27 01:33:18;;;;;;;;;45.50;35.50;;;;;7.63;74.69;101104.50;1975924;28;2866940;-78
2024/02/27 01:34:30;;;;;;;;;40.20;35.40;;;;;7.62;75.18;101087.09;1984174;28;3595024;-79
2024/02/27 01:35:42;;;;;;;;;39.33;32.67;;;;;7.58;75.64;101082.78;2007767;27;3601282;-79
2024/02/27 01:36:54;;;;;;;;;30.20;28.00;;;;;7.55;75.08;101085.47;2000104;28;3589819;-80
2024/02/27 01:38:06;;;;;;;;;36.00;31.60;;;;;7.54;75.58;101087.22;2010817;28;3612686;-79
2024/02/27 01:39:18;;;;;;;;;28.40;20.20;;;;;7.57;75.35;101094.16;1989554;28;3585625;-79
2024/02/27 01:40:30;;;;;;;;;34.20;31.20;;;;;7.58;75.28;101097.66;2014404;28;3599203;-79
2024/02/27 01:41:49;;;;;;;;;34.60;29.40;;;;;7.57;75.35;101098.50;1992390;28;3608557;-79
2024/02/27 01:43:00;;;;;;;;;27.67;24.00;;;;;7.54;75.01;101094.19;1974773;28;3567960;-80
2024/02/27 01:44:12;;;;;;;;;31.67;29.67;;;;;7.57;74.98;101095.91;2013515;28;3595034;-78
2024/02/27 01:45:25;;;;;;;;;34.00;29.00;;;;;7.57;75.52;101096.78;1984475;27;3608528;-80
2024/02/27 01:46:35;;;;;;;;;36.50;32.00;;;;;7.55;74.41;101106.41;1977472;27;2857520;-78
2024/02/27 01:47:49;;;;;;;;;43.00;31.80;;;;;7.54;74.82;101102.03;1994125;28;3626251;-80
2024/02/27 01:49:02;;;;;;;;;35.00;31.50;;;;;7.57;75.41;101106.38;1978397;28;2857552;-80
2024/02/27 01:50:14;;;;;;;;;33.00;30.50;;;;;7.57;75.42;101109.84;1978967;28;2845006;-78
2024/02/27 01:51:25;;;;;;;;;40.50;32.00;;;;;7.57;74.63;101106.38;1977065;28;2861763;-78
2024/02/27 01:52:37;;;;;;;;;30.20;26.20;;;;;7.54;74.72;101109.88;1975131;28;3591867;-79
2024/02/27 01:53:55;;;;;;;;;33.33;31.33;;;;;7.58;74.91;101124.66;1999482;28;3596097;-79
2024/02/27 01:55:06;;;;;;;;;42.50;35.00;;;;;7.56;74.53;101110.72;1974537;28;2849239;-79
2024/02/27 01:56:19;;;;;;;;;44.00;32.00;;;;;7.51;74.64;101110.78;1971780;28;3637705;-78
2024/02/27 01:57:30;;;;;;;;;24.67;21.33;;;;;7.56;74.97;101117.69;1966546;28;3570078;-78
2024/02/27 01:58:44;;;;;;;;;35.67;29.67;;;;;7.53;75.19;101114.25;2013486;28;3609606;-78
2024/02/27 01:59:54;;;;;;;;;33.00;30.50;;;;;7.57;75.01;101122.94;1975748;28;2845045;-78
2024/02/27 02:01:10;;;;;;;;;27.17;24.50;;;;;7.56;74.63;101118.56;2004531;28;2835698;-79
2024/02/27 02:02:21;;;;;;;;;38.00;30.00;;;;;7.57;75.21;101116.81;1976383;28;2879419;-78
2024/02/27 02:03:39;;;;;;;;;36.40;31.40;;;;;7.59;74.17;101130.75;1994572;28;3607479;-78
2024/02/27 02:04:50;;;;;;;;;35.00;29.67;;;;;7.56;74.50;101126.41;1998725;28;3593997;-78
2024/02/27 02:06:03;;;;;;;;;27.00;21.00;;;;;7.56;74.66;101142.13;2011196;28;3571068;-78
2024/02/27 02:07:13;;;;;;;;;34.00;32.00;;;;;7.51;74.35;101133.47;1992653;28;2855477;-79
2024/02/27 02:08:27;;;;;;;;;36.40;32.80;;;;;7.46;75.07;101128.31;1978137;28;3585616;-79
2024/02/27 02:09:39;;;;;;;;;40.00;33.67;;;;;7.50;74.27;101142.22;1998368;28;3591874;-77
2024/02/27 02:10:51;;;;;;;;;35.00;30.20;;;;;7.46;74.43;101135.31;1989896;28;3601657;-79
2024/02/27 02:12:04;;;;;;;;;27.67;24.67;;;;;7.49;74.74;101138.72;1964255;28;3568979;-79
2024/02/27 02:13:17;;;;;;;;;33.33;26.83;;;;;7.54;74.61;101154.34;2009023;28;2858627;-78
2024/02/27 02:14:28;;;;;;;;;42.00;34.50;;;;;7.50;74.05;101140.47;2000790;28;2845081;-78
2024/02/27 02:15:40;;;;;;;;;39.00;29.67;;;;;7.54;74.57;101151.75;1991891;28;3614819;-79
2024/02/27 02:16:52;;;;;;;;;39.40;32.00;;;;;7.51;74.48;101141.31;1978295;28;3621017;-79
2024/02/27 02:18:04;;;;;;;;;34.80;28.40;;;;;7.51;74.23;101142.19;1977026;28;3607483;-78
2024/02/27 02:19:16;;;;;;;;;43.00;35.80;;;;;7.52;74.51;101138.69;1996060;28;3577276;-79
2024/02/27 02:20:29;;;;;;;;;32.60;30.00;;;;;7.51;74.30;101131.72;2017893;27;3588231;-79
2024/02/27 02:21:39;;;;;;;;;26.50;25.00;;;;;7.54;74.08;101138.66;1977900;28;2849216;-79
2024/02/27 02:22:51;;;;;;;;;33.60;31.60;;;;;7.52;74.47;101129.97;1998295;28;3610655;-79
2024/02/27 02:24:04;;;;;;;;;36.40;30.60;;;;;7.55;74.46;101143.03;1997668;28;3602278;-78
2024/02/27 02:25:20;;;;;;;;;37.80;31.20;;;;;7.56;74.72;101149.09;1981049;28;3600547;-79
2024/02/27 02:26:32;;;;;;;;;35.67;28.00;;;;;7.56;74.67;101147.34;1974190;28;3612751;-78
2024/02/27 02:27:44;;;;;;;;;35.40;31.80;;;;;7.59;74.33;101152.56;1992785;27;3605419;-79
2024/02/27 02:28:56;;;;;;;;;38.80;32.00;;;;;7.56;74.11;101155.19;1993236;27;3582487;-78
2024/02/27 02:30:09;;;;;;;;;42.00;33.00;;;;;7.58;73.82;101150.81;1977497;28;2879383;-79
2024/02/27 02:31:20;;;;;;;;;46.00;39.00;;;;;7.58;73.70;101142.13;1977258;28;2852344;-79
2024/02/27 02:32:32;;;;;;;;;44.40;35.00;;;;;7.54;73.94;101138.66;1994870;28;3588768;-78
2024/02/27 02:33:44;;;;;;;;;33.40;32.00;;;;;7.56;73.90;101147.34;1996602;28;3585603;-78
2024/02/27 02:34:56;;;;;;;;;34.67;26.00;;;;;7.55;74.02;101135.19;1991147;28;3609590;-79
2024/02/27 02:36:08;;;;;;;;;32.20;27.60;;;;;7.57;73.92;101141.25;1996511;27;3604389;-78
2024/02/27 02:37:21;;;;;;;;;44.40;35.80;;;;;7.54;73.51;101142.16;1993820;28;3596065;-79
2024/02/27 02:38:32;;;;;;;;;33.00;31.00;;;;;7.50;73.81;101137.84;2001126;27;2862811;-78
2024/02/27 02:39:44;;;;;;;;;36.33;29.33;;;;;7.52;73.64;101136.09;1973923;28;3600204;-78
2024/02/27 02:40:56;;;;;;;;;35.67;32.00;;;;;7.51;73.97;101136.09;2015187;28;3612736;-80
2024/02/27 02:42:08;;;;;;;;;33.60;30.00;;;;;7.54;73.64;101139.53;1995743;28;3596041;-80
2024/02/27 02:43:20;;;;;;;;;35.00;30.00;;;;;7.51;73.93;101144.81;1989562;28;3600617;-78
2024/02/27 02:44:32;;;;;;;;;31.00;28.00;;;;;7.53;74.42;101137.78;1991410;28;3594021;-78
2024/02/27 02:45:44;;;;;;;;;43.67;32.67;;;;;7.52;73.27;101141.31;1974791;28;3621074;-79
2024/02/27 02:46:56;;;;;;;;;36.20;30.20;;;;;7.51;73.35;101142.19;1997178;28;3612698;-78
2024/02/27 02:48:08;;;;;;;;;33.40;28.00;;;;;7.52;73.67;101143.06;1998240;27;3596485;-79
2024/02/27 02:49:20;;;;;;;;;36.20;30.80;;;;;7.53;73.61;101144.78;2019884;28;3597090;-79
2024/02/27 02:50:32;;;;;;;;;38.67;31.33;;;;;7.59;74.36;101154.28;1980954;28;3619020;-79
2024/02/27 02:51:44;;;;;;;;;33.00;29.60;;;;;7.57;73.83;101154.31;1985655;28;3600223;-79
2024/02/27 02:52:57;;;;;;;;;38.20;32.60;;;;;7.57;73.28;101153.44;1991354;28;3597589;-78
2024/02/27 02:54:07;;;;;;;;;39.00;32.00;;;;;7.56;73.39;101152.59;1977868;28;2850218;-79
2024/02/27 02:55:19;;;;;;;;;25.33;22.33;;;;;7.52;73.20;101156.13;1991768;28;3573528;-77
2024/02/27 02:56:31;;;;;;;;;35.20;29.40;;;;;7.47;73.47;101143.13;2019218;28;3580426;-78
2024/02/27 02:57:43;;;;;;;;;28.20;21.20;;;;;7.50;73.59;101171.00;2015415;28;1835799;-80
2024/02/27 02:58:54;;;;;;;;;36.00;31.50;;;;;7.48;72.80;101164.91;1992438;28;2844004;-78
2024/02/27 03:00:07;;;;;;;;;37.60;31.80;;;;;7.42;73.27;101161.50;1992739;28;3614781;-78
2024/02/27 03:01:19;;;;;;;;;31.33;30.00;;;;;7.39;73.00;101172.00;1998704;28;3579410;-78
2024/02/27 03:02:31;;;;;;;;;39.40;32.20;;;;;7.42;73.77;101176.31;2011778;28;3591891;-78
2024/02/27 03:03:43;;;;;;;;;31.33;26.67;;;;;7.46;73.78;101177.16;1968596;28;3606493;-79
2024/02/27 03:04:55;;;;;;;;;30.67;21.67;;;;;7.42;73.78;101169.34;1991118;28;3592936;-79
2024/02/27 03:06:07;;;;;;;;;44.40;32.60;;;;;7.42;72.90;101179.81;2019204;28;3627314;-78
2024/02/27 03:07:19;;;;;;;;;36.80;29.80;;;;;7.41;72.83;101187.66;1996794;28;3598131;-78
2024/02/27 03:08:30;;;;;;;;;43.40;34.60;;;;;7.39;73.19;101178.97;1970247;28;2866884;-78
2024/02/27 03:09:42;;;;;;;;;48.00;40.00;;;;;7.37;72.68;101184.22;2009473;28;3595067;-78
2024/02/27 03:10:53;;;;;;;;;27.50;27.50;;;;;7.34;73.30;101178.16;2001403;28;2834589;-78
2024/02/27 03:12:05;;;;;;;;;35.20;29.00;;;;;7.34;72.93;101183.38;1993986;28;3600196;-79
2024/02/27 03:13:17;;;;;;;;;52.20;39.00;;;;;7.32;72.93;101191.25;1981866;28;3609563;-78
2024/02/27 03:14:29;;;;;;;;;36.80;32.60;;;;;7.30;73.48;101187.78;1996288;28;3612707;-78
2024/02/27 03:15:41;;;;;;;;;35.40;29.80;;;;;7.30;73.59;101187.78;1995933;28;3603349;-79
2024/02/27 03:16:55;;;;;;;;;40.67;32.00;;;;;7.33;73.94;101187.78;1992669;28;3596080;-78
2024/02/27 03:18:06;;;;;;;;;34.50;31.00;;;;;7.36;73.38;101187.72;1997306;28;2862784;-79
2024/02/27 03:19:18;;;;;;;;;34.80;30.80;;;;;7.35;73.32;101191.22;1986286;28;3583522;-78
2024/02/27 03:20:30;;;;;;;;;33.80;30.80;;;;;7.37;73.42;101199.03;2012098;28;3597122;-79
2024/02/27 03:21:42;;;;;;;;;38.80;33.40;;;;;7.41;73.44;101191.13;1988948;28;3576278;-78
2024/02/27 03:22:54;;;;;;;;;36.00;30.29;;;;;7.41;73.24;101196.38;2015988;28;3602319;-78
2024/02/27 03:24:07;;;;;;;;;37.00;32.80;;;;;7.42;73.23;101205.09;1996446;28;3598103;-78
2024/02/27 03:25:18;;;;;;;;;29.00;29.00;;;;;7.39;72.92;101197.28;1977364;28;2833555;-79
2024/02/27 03:26:30;;;;;;;;;34.60;30.20;;;;;7.33;72.90;101198.22;1996585;28;3600220;-78
2024/02/27 03:27:42;;;;;;;;;45.20;32.20;;;;;7.33;72.94;101200.84;1996980;28;3611665;-78
2024/02/27 03:28:54;;;;;;;;;31.80;29.00;;;;;7.31;73.09;101203.47;1980012;28;3589806;-78
2024/02/27 03:30:07;;;;;;;;;39.60;28.40;;;;;7.28;73.21;101197.41;1995235;28;3623112;-78
2024/02/27 03:31:17;;;;;;;;;47.50;37.50;;;;;7.29;73.34;101215.69;1977768;28;2875243;-79
2024/02/27 03:32:29;;;;;;;;;32.67;24.00;;;;;7.27;73.38;101200.91;1992670;28;3601304;-79
2024/02/27 03:33:41;;;;;;;;;41.40;33.20;;;;;7.29;73.28;101206.97;2010228;27;3588738;-78
2024/02/27 03:34:53;;;;;;;;;33.60;29.40;;;;;7.30;73.36;101200.88;2006191;28;3591863;-80
2024/02/27 03:36:05;;;;;;;;;32.67;30.33;;;;;7.30;73.43;101214.81;1991858;28;3585652;-78
2024/02/27 03:37:17;;;;;;;;;37.00;31.33;;;;;7.30;73.11;101213.94;2010756;28;3613799;-78
2024/02/27 03:38:31;;;;;;;;;43.00;32.33;;;;;7.25;72.95;101210.50;1991913;28;3608588;-78
2024/02/27 03:39:43;;;;;;;;;44.67;33.33;;;;;7.27;73.35;101211.34;1974601;28;3590872;-79
2024/02/27 03:40:55;;;;;;;;;31.60;28.60;;;;;7.24;73.45;101212.25;2007310;28;3571062;-79
2024/02/27 03:42:09;;;;;;;;;38.88;32.50;;;;;7.26;73.25;101220.09;2015715;28;3620013;-76
2024/02/27 03:43:20;;;;;;;;;38.00;32.00;;;;;7.20;72.76;101228.88;1988803;28;2863803;-78
2024/02/27 03:44:32;;;;;;;;;43.40;34.40;;;;;7.19;73.32;101222.78;1987681;28;3583561;-78
2024/02/27 03:45:44;;;;;;;;;51.67;39.00;;;;;7.15;73.01;101233.28;2015413;28;3618973;-76
2024/02/27 03:46:56;;;;;;;;;33.80;27.40;;;;;7.14;73.67;101227.19;1995793;28;3602278;-78
2024/02/27 03:48:08;;;;;;;;;36.80;32.20;;;;;7.14;73.62;101219.34;1994087;28;3585609;-77
2024/02/27 03:49:20;;;;;;;;;40.00;31.67;;;;;7.13;73.22;101222.84;2003696;28;3599205;-79
2024/02/27 03:50:31;;;;;;;;;45.67;35.00;;;;;7.18;73.73;101233.25;1980212;28;3587741;-78
2024/02/27 03:51:43;;;;;;;;;27.67;25.67;;;;;7.20;72.82;101234.09;1989746;28;3577312;-79
2024/02/27 03:52:55;;;;;;;;;41.67;34.00;;;;;7.12;73.08;101225.47;2014548;27;3586676;-78
2024/02/27 03:54:07;;;;;;;;;36.60;30.20;;;;;7.12;73.17;101235.91;1994798;28;3605396;-77
2024/02/27 03:55:19;;;;;;;;;34.00;29.60;;;;;7.10;73.01;101243.78;1992876;28;3596080;-78
2024/02/27 03:56:31;;;;;;;;;49.20;34.40;;;;;7.05;73.16;101238.63;1994561;28;3593275;-76
2024/02/27 03:57:43;;;;;;;;;39.60;33.00;;;;;7.02;74.06;101224.69;1996547;28;3625574;-78
2024/02/27 03:58:55;;;;;;;;;40.00;35.67;;;;;7.05;73.51;101235.13;1993354;27;3578404;-77
2024/02/27 04:00:09;;;;;;;;;41.00;32.00;;;;;7.06;73.61;101236.88;2014730;28;3618990;-79
2024/02/27 04:01:19;;;;;;;;;37.00;34.00;;;;;7.03;73.69;101248.22;1976022;28;2858634;-77
2024/02/27 04:02:31;;;;;;;;;40.00;30.00;;;;;7.04;73.29;101244.72;1987325;28;3617926;-78
2024/02/27 04:03:44;;;;;;;;;37.00;27.67;;;;;7.01;73.59;101241.28;1992638;27;3614156;-79
2024/02/27 04:04:54;;;;;;;;;37.00;30.50;;;;;7.02;73.61;101246.47;1975138;28;2862757;-78
2024/02/27 04:06:06;;;;;;;;;45.33;37.00;;;;;7.00;73.31;101243.00;1990751;27;3591858;-78
2024/02/27 04:07:18;;;;;;;;;38.40;34.60;;;;;7.05;73.88;101258.66;2019411;28;3581443;-78
2024/02/27 04:08:30;;;;;;;;;41.20;34.60;;;;;7.01;73.57;101254.34;2019394;28;3590826;-78
2024/02/27 04:09:42;;;;;;;;;32.00;30.00;;;;;7.03;73.40;101260.41;1995566;27;3584588;-77
2024/02/27 04:10:54;;;;;;;;;40.40;31.80;;;;;6.99;73.47;101256.94;1995966;28;3622423;-77
2024/02/27 04:12:06;;;;;;;;;42.00;32.00;;;;;7.04;73.62;101260.38;1983786;28;3616256;-78
2024/02/27 04:13:18;;;;;;;;;31.33;29.33;;;;;6.98;72.83;101269.19;1982699;28;3590853;-77
2024/02/27 04:14:30;;;;;;;;;25.80;22.00;;;;;6.98;73.00;101266.56;1985268;28;3581467;-78
2024/02/27 04:15:44;;;;;;;;;41.60;34.00;;;;;6.98;73.64;101263.94;1988397;28;3579375;-78
2024/02/27 04:16:55;;;;;;;;;41.00;32.33;;;;;6.95;73.09;101271.81;1997804;28;3601221;-78
2024/02/27 04:18:07;;;;;;;;;35.40;30.20;;;;;6.93;73.24;101264.88;2017681;28;3589765;-77
2024/02/27 04:19:19;;;;;;;;;41.00;33.60;;;;;6.96;73.37;101270.91;1993660;28;3603359;-78
2024/02/27 04:20:31;;;;;;;;;40.60;34.40;;;;;6.95;73.12;101261.34;1995853;28;3617927;-78
2024/02/27 04:21:44;;;;;;;;;39.43;30.00;;;;;6.94;72.72;101264.84;1993375;28;3607503;-77
2024/02/27 04:22:56;;;;;;;;;41.80;31.80;;;;;6.93;73.45;101264.88;1995422;28;3618947;-77
2024/02/27 04:24:08;;;;;;;;;41.00;35.00;;;;;6.94;73.43;101274.44;1993164;28;3592936;-78
2024/02/27 04:25:20;;;;;;;;;40.80;33.00;;;;;6.99;73.20;101272.63;2017542;28;3614833;-78
2024/02/27 04:26:32;;;;;;;;;39.80;31.80;;;;;6.95;73.21;101274.41;1997185;28;3604368;-78
2024/02/27 04:27:44;;;;;;;;;37.33;29.67;;;;;6.97;73.49;101275.28;1991078;27;3605448;-79
2024/02/27 04:28:55;;;;;;;;;36.40;28.00;;;;;7.02;73.10;101271.75;1979436;28;2869048;-78
2024/02/27 04:30:08;;;;;;;;;33.40;30.60;;;;;7.04;72.57;101275.19;2016240;28;3601793;-78
2024/02/27 04:31:19;;;;;;;;;32.00;27.67;;;;;7.06;72.91;101278.69;1987842;28;3588805;-78
2024/02/27 04:32:32;;;;;;;;;33.40;30.80;;;;;7.08;73.36;101284.78;2004114;28;3595000;-79
2024/02/27 04:33:42;;;;;;;;;36.00;31.50;;;;;7.08;72.90;101285.66;1974338;28;2851283;-78
2024/02/27 04:34:54;;;;;;;;;39.40;33.00;;;;;7.05;72.34;101292.63;1992789;28;3602275;-77
2024/02/27 04:36:08;;;;;;;;;36.00;29.80;;;;;7.04;72.76;101281.31;1971627;28;2864905;-79
2024/02/27 04:37:19;;;;;;;;;36.33;29.67;;;;;7.11;73.08;101292.59;1998399;28;3607810;-79
2024/02/27 04:38:31;;;;;;;;;33.00;29.60;;;;;7.08;72.10;101282.16;1993927;28;3598142;-78
2024/02/27 04:39:44;;;;;;;;;26.57;19.57;;;;;7.03;72.80;101283.94;1991769;27;3578365;-79
2024/02/27 04:40:56;;;;;;;;;29.33;22.67;;;;;6.98;72.85;101276.16;1982414;28;3587731;-79
2024/02/27 04:42:08;;;;;;;;;35.00;30.80;;;;;7.04;72.97;101291.75;2019301;28;3601252;-79
2024/02/27 04:43:20;;;;;;;;;47.00;36.80;;;;;7.03;72.13;101273.47;1986560;28;3595008;-78
2024/02/27 04:44:32;;;;;;;;;40.67;33.67;;;;;7.04;72.47;101290.88;1983743;28;3596089;-78
2024/02/27 04:45:44;;;;;;;;;35.60;30.20;;;;;7.06;73.16;101289.16;1995574;28;3598641;-79
2024/02/27 04:46:56;;;;;;;;;37.20;27.40;;;;;7.10;72.42;101280.38;1996077;28;3622096;-77
2024/02/27 04:48:09;;;;;;;;;37.80;32.20;;;;;7.10;72.82;101285.63;1997245;27;3598122;-78
2024/02/27 04:49:21;;;;;;;;;33.67;30.00;;;;;7.13;73.00;101296.06;1966838;28;3590853;-78
2024/02/27 04:50:33;;;;;;;;;36.00;29.20;;;;;7.14;72.67;101291.66;2012147;28;3607567;-79
2024/02/27 04:51:45;;;;;;;;;39.00;32.20;;;;;7.16;72.39;101298.63;1979019;28;3592916;-78
2024/02/27 04:52:57;;;;;;;;;40.00;32.33;;;;;7.17;72.90;101292.50;1990960;28;3596083;-78
2024/02/27 04:54:09;;;;;;;;;41.00;34.00;;;;;7.20;73.04;101297.72;1990306;28;3594344;-78
2024/02/27 04:55:21;;;;;;;;;35.20;32.00;;;;;7.23;72.63;101301.19;1993203;28;3588777;-77
2024/02/27 04:56:34;;;;;;;;;35.43;31.57;;;;;7.24;72.78;101300.28;1991461;28;3588808;-79
2024/02/27 04:57:46;;;;;;;;;29.80;27.00;;;;;7.26;71.72;101298.56;1993685;28;3577657;-78
2024/02/27 04:58:57;;;;;;;;;31.67;24.33;;;;;7.27;71.60;101306.38;2015241;27;3584615;-77
2024/02/27 05:00:10;;;;;;;;;39.40;32.20;;;;;7.22;71.66;101310.78;2019590;28;3602659;-78
2024/02/27 05:01:21;;;;;;;;;37.50;32.00;;;;;7.18;72.29;101302.09;1976199;28;2858949;-77
2024/02/27 05:02:33;;;;;;;;;35.20;31.40;;;;;7.18;71.63;101309.06;1984175;28;3572075;-79
2024/02/27 05:03:45;;;;;;;;;32.40;29.00;;;;;7.16;72.55;101306.47;2012915;28;3591867;-79
2024/02/27 05:04:57;;;;;;;;;35.80;29.40;;;;;7.21;72.53;101311.63;1995974;28;3607888;-79
2024/02/27 05:06:09;;;;;;;;;39.60;28.80;;;;;7.21;72.21;101319.47;1997211;28;3620341;-78
2024/02/27 05:07:21;;;;;;;;;31.60;27.00;;;;;7.19;72.30;101311.66;1997162;28;3588749;-78
2024/02/27 05:08:33;;;;;;;;;36.67;32.00;;;;;7.20;71.57;101329.09;1980887;28;3592948;-78
2024/02/27 05:09:44;;;;;;;;;31.60;26.60;;;;;7.19;72.25;101324.75;2015804;28;3596058;-79
2024/02/27 05:10:56;;;;;;;;;31.00;29.67;;;;;7.16;72.55;101327.38;1981151;28;3583924;-79
2024/02/27 05:12:08;;;;;;;;;35.20;31.60;;;;;7.20;72.75;101329.09;2011155;28;3605407;-78
2024/02/27 05:13:20;;;;;;;;;29.00;27.20;;;;;7.19;72.63;101327.34;1995670;28;3585979;-79
2024/02/27 05:14:32;;;;;;;;;36.80;29.20;;;;;7.24;72.17;101329.06;2002052;28;2856546;-79
2024/02/27 05:15:43;;;;;;;;;34.60;29.80;;;;;7.18;71.65;101325.63;2006907;28;3600208;-77
2024/02/27 05:16:55;;;;;;;;;44.60;31.20;;;;;7.20;71.91;101323.88;2019955;28;3639757;-79
2024/02/27 05:18:07;;;;;;;;;45.60;32.40;;;;;7.20;72.17;101326.50;1995046;28;3608524;-78
2024/02/27 05:19:19;;;;;;;;;37.60;31.20;;;;;7.21;72.29;101322.09;1988616;28;3603376;-79
2024/02/27 05:20:31;;;;;;;;;35.00;30.00;;;;;7.23;72.33;101325.59;1986040;28;3606450;-79
2024/02/27 05:21:43;;;;;;;;;35.33;30.67;;;;;7.24;72.57;101334.28;1992161;28;3585672;-79
2024/02/27 05:22:55;;;;;;;;;48.80;38.40;;;;;7.26;71.98;101338.63;2019590;28;3591862;-78
2024/02/27 05:24:07;;;;;;;;;35.20;29.80;;;;;7.26;71.69;101333.38;2018210;27;3610620;-78